createdAt,value
2022-09-06T00:00:15.015Z,30.80
2022-09-06T00:02:43.529Z,28.40
2022-09-06T00:05:12.355Z,31.85
2022-09-06T00:07:39.732Z,27.17
2022-09-06T00:10:06.906Z,28.48
2022-09-06T00:12:34.677Z,26.25
2022-09-06T00:15:01.597Z,26.95
2022-09-06T00:17:28.483Z,24.30
2022-09-06T00:19:55.342Z,23.92
2022-09-06T00:22:22.194Z,26.10
2022-09-06T00:24:49.056Z,26.73
2022-09-06T00:27:16.037Z,26.67
2022-09-06T00:29:42.887Z,23.52
2022-09-06T00:32:09.827Z,30.63
2022-09-06T00:34:36.712Z,28.73
2022-09-06T00:37:03.565Z,24.42
2022-09-06T00:39:30.434Z,27.17
2022-09-06T00:41:57.344Z,23.05
2022-09-06T00:44:24.384Z,24.05
2022-09-06T00:46:53.949Z,24.52
2022-09-06T00:49:32.728Z,22.08
2022-09-06T00:52:05.017Z,24.90
2022-09-06T00:54:32.448Z,25.15
2022-09-06T00:56:59.880Z,27.38
2022-09-06T00:59:30.167Z,23.45
2022-09-06T01:01:57.359Z,28.83
2022-09-06T01:04:24.966Z,25.67
2022-09-06T01:06:54.967Z,24.92
2022-09-06T01:09:32.153Z,24.15
2022-09-06T01:12:36.507Z,27.10
2022-09-06T01:15:15.393Z,26.33
2022-09-06T01:17:47.968Z,25.92
2022-09-06T01:20:29.550Z,22.70
2022-09-06T01:23:08.279Z,22.48
2022-09-06T01:25:47.140Z,23.27
2022-09-06T01:28:28.560Z,22.13
2022-09-06T01:31:20.509Z,26.33
2022-09-06T01:34:11.223Z,29.88
2022-09-06T01:37:09.100Z,27.85
2022-09-06T01:39:39.188Z,27.95
2022-09-06T01:42:15.816Z,28.40
2022-09-06T01:45:05.807Z,27.65
2022-09-06T01:47:35.692Z,31.15
2022-09-06T01:50:19.674Z,30.00
2022-09-06T01:53:09.256Z,33.33
2022-09-06T01:55:44.882Z,26.10
2022-09-06T01:58:48.703Z,32.13
2022-09-06T02:01:45.963Z,26.35
2022-09-06T02:04:17.064Z,23.73
2022-09-06T02:06:52.914Z,25.40
2022-09-06T02:09:23.774Z,24.88
2022-09-06T02:12:00.543Z,26.47
2022-09-06T02:14:45.939Z,27.15
2022-09-06T02:17:19.457Z,29.95
2022-09-06T02:19:55.610Z,28.45
2022-09-06T02:22:27.112Z,24.38
2022-09-06T02:24:56.591Z,23.98
2022-09-06T02:27:23.548Z,31.02
2022-09-06T02:29:50.425Z,32.40
2022-09-06T02:32:23.096Z,34.40
2022-09-06T02:34:55.593Z,33.58
2022-09-06T02:37:26.134Z,32.90
2022-09-06T02:39:56.173Z,31.48
2022-09-06T02:42:24.122Z,27.40
2022-09-06T02:44:50.941Z,28.60
2022-09-06T02:47:18.190Z,28.10
2022-09-06T02:49:45.020Z,26.00
2022-09-06T02:52:12.077Z,31.02
2022-09-06T02:54:38.925Z,29.33
2022-09-06T02:57:05.833Z,30.88
2022-09-06T02:59:32.772Z,32.47
2022-09-06T03:02:00.271Z,28.70
2022-09-06T03:04:27.176Z,28.90
2022-09-06T03:06:54.000Z,33.95
2022-09-06T03:09:20.813Z,27.23
2022-09-06T03:11:47.635Z,33.17
2022-09-06T03:14:16.997Z,27.48
2022-09-06T03:16:43.924Z,28.58
2022-09-06T03:19:11.010Z,29.10
2022-09-06T03:21:37.823Z,30.40
2022-09-06T03:24:04.804Z,31.20
2022-09-06T03:26:31.708Z,31.75
2022-09-06T03:28:58.527Z,29.13
2022-09-06T03:31:25.400Z,28.95
2022-09-06T03:33:52.295Z,28.20
2022-09-06T03:36:19.152Z,27.42
2022-09-06T03:38:46.118Z,27.75
2022-09-06T03:41:13.007Z,30.23
2022-09-06T03:43:39.838Z,32.97
2022-09-06T03:46:06.673Z,31.50
2022-09-06T03:48:33.707Z,33.10
2022-09-06T03:51:00.595Z,31.38
2022-09-06T03:53:28.597Z,32.50
2022-09-06T03:55:58.155Z,34.40
2022-09-06T03:58:28.743Z,38.75
2022-09-06T04:01:08.271Z,28.25
2022-09-06T04:03:35.999Z,28.00
2022-09-06T04:06:04.532Z,28.33
2022-09-06T04:08:32.166Z,34.47
2022-09-06T04:10:59.957Z,31.33
2022-09-06T04:13:29.018Z,32.35
2022-09-06T04:15:56.426Z,32.13
2022-09-06T04:18:24.241Z,26.60
2022-09-06T04:20:52.783Z,26.30
2022-09-06T04:23:20.330Z,24.98
2022-09-06T04:25:48.172Z,26.40
2022-09-06T04:28:15.328Z,30.92
2022-09-06T04:30:42.291Z,29.33
2022-09-06T04:33:09.153Z,32.65
2022-09-06T04:35:36.349Z,29.00
2022-09-06T04:38:04.163Z,33.75
2022-09-06T04:40:31.010Z,32.05
2022-09-06T04:42:57.796Z,30.77
2022-09-06T04:45:25.003Z,27.80
2022-09-06T04:47:51.932Z,30.05
2022-09-06T04:50:18.860Z,30.65
2022-09-06T04:52:45.688Z,32.88
2022-09-06T04:55:12.556Z,31.48
2022-09-06T04:57:44.454Z,34.35
2022-09-06T05:00:13.115Z,36.85
2022-09-06T05:02:40.064Z,34.80
2022-09-06T05:05:07.199Z,31.27
2022-09-06T05:07:34.032Z,27.42
2022-09-06T05:10:00.837Z,29.08
2022-09-06T05:12:27.828Z,32.45
2022-09-06T05:14:54.703Z,29.42
2022-09-06T05:17:21.551Z,28.80
2022-09-06T05:19:54.406Z,29.00
2022-09-06T05:22:21.326Z,33.58
2022-09-06T05:24:48.178Z,29.67
2022-09-06T05:28:02.978Z,32.63
2022-09-06T05:30:29.805Z,30.25
2022-09-06T05:32:56.651Z,35.40
2022-09-06T05:35:26.526Z,33.50
2022-09-06T05:37:53.437Z,36.38
2022-09-06T05:40:20.389Z,32.15
2022-09-06T05:42:47.235Z,32.10
2022-09-06T05:45:14.384Z,31.05
2022-09-06T05:48:36.100Z,30.52
2022-09-06T05:53:37.339Z,30.45
2022-09-06T05:56:05.252Z,33.08
2022-09-06T05:58:32.251Z,28.55
2022-09-06T06:05:13.202Z,32.05
2022-09-06T06:11:41.116Z,37.35
2022-09-06T06:21:41.171Z,33.28
2022-09-06T06:24:08.249Z,38.65
2022-09-06T06:26:36.949Z,37.25
2022-09-06T06:32:50.521Z,38.80
2022-09-06T06:35:17.351Z,41.63
2022-09-06T06:37:45.793Z,38.83
2022-09-06T06:40:13.628Z,44.60
2022-09-06T06:43:17.044Z,41.13
2022-09-06T06:45:48.189Z,40.53
2022-09-06T06:48:15.058Z,42.42
2022-09-06T06:50:42.000Z,36.75
2022-09-06T06:53:08.941Z,39.38
2022-09-06T06:55:35.839Z,37.50
2022-09-06T06:58:03.888Z,39.25
2022-09-06T07:00:30.902Z,35.40
2022-09-06T07:02:58.016Z,35.70
2022-09-06T07:08:12.763Z,29.25
2022-09-06T07:10:39.592Z,29.50
2022-09-06T07:13:06.459Z,29.08
2022-09-06T07:15:33.284Z,29.02
2022-09-06T07:18:00.192Z,29.67
2022-09-06T07:20:27.339Z,31.33
2022-09-06T07:25:49.314Z,27.50
2022-09-06T07:28:16.127Z,27.17
2022-09-06T07:30:42.979Z,25.50
2022-09-06T07:33:09.894Z,24.23
2022-09-06T07:35:36.816Z,24.10
2022-09-06T07:38:04.799Z,22.80
2022-09-06T07:40:31.737Z,24.10
2022-09-06T07:50:54.645Z,21.85
2022-09-06T07:54:31.555Z,23.20
2022-09-06T08:01:20.264Z,21.13
2022-09-06T08:03:48.098Z,24.65
2022-09-06T08:06:15.102Z,20.80
2022-09-06T08:08:57.967Z,21.75
2022-09-06T08:11:29.031Z,23.67
2022-09-06T08:13:56.805Z,22.77
2022-09-06T08:16:26.119Z,22.40
2022-09-06T08:18:55.232Z,20.30
2022-09-06T08:21:23.719Z,19.95
2022-09-06T08:23:53.669Z,20.88
2022-09-06T08:26:22.447Z,20.20
2022-09-06T08:28:57.486Z,21.05
2022-09-06T08:31:24.651Z,19.10
2022-09-06T08:33:51.725Z,18.77
2022-09-06T08:36:18.779Z,18.15
2022-09-06T08:38:48.337Z,18.52
2022-09-06T08:41:15.158Z,17.77
2022-09-06T08:47:04.657Z,19.40
2022-09-06T08:49:36.559Z,19.67
2022-09-06T08:52:10.019Z,17.13
2022-09-06T08:55:01.193Z,17.10
2022-09-06T08:58:05.523Z,17.23
2022-09-06T09:00:35.097Z,17.33
2022-09-06T09:03:15.927Z,16.00
2022-09-06T09:05:47.016Z,18.13
2022-09-06T09:08:29.602Z,19.33
2022-09-06T09:11:03.808Z,19.13
2022-09-06T09:13:59.239Z,16.30
2022-09-06T09:16:26.852Z,17.10
2022-09-06T09:18:57.745Z,15.60
2022-09-06T09:21:30.484Z,21.40
2022-09-06T09:24:03.133Z,16.42
2022-09-06T09:26:38.539Z,21.65
2022-09-06T09:29:13.993Z,17.58
2022-09-06T09:32:07.160Z,22.00
2022-09-06T09:34:39.757Z,17.10
2022-09-06T09:40:01.276Z,16.05
2022-09-06T09:42:32.384Z,14.85
2022-09-06T09:45:00.310Z,15.23
2022-09-06T09:47:30.701Z,14.60
2022-09-06T09:49:58.652Z,15.65
2022-09-06T09:52:32.460Z,15.50
2022-09-06T09:55:05.555Z,20.00
2022-09-06T09:57:44.808Z,15.60
2022-09-06T10:00:13.981Z,14.07
2022-09-06T10:02:43.010Z,14.82
2022-09-06T10:05:13.010Z,14.95
2022-09-06T10:07:46.164Z,14.15
2022-09-06T10:10:23.499Z,12.68
2022-09-06T10:13:08.767Z,12.60
2022-09-06T10:15:40.579Z,12.65
2022-09-06T10:18:33.535Z,11.80
2022-09-06T10:21:10.893Z,12.73
2022-09-06T10:26:42.031Z,11.90
2022-09-06T10:29:13.084Z,12.98
2022-09-06T10:31:39.918Z,11.95
2022-09-06T10:34:28.310Z,12.73
2022-09-06T10:37:19.795Z,14.85
2022-09-06T10:39:53.986Z,11.73
2022-09-06T10:42:40.569Z,10.65
2022-09-06T10:45:36.100Z,11.48
2022-09-06T10:48:03.442Z,10.80
2022-09-06T10:50:36.168Z,11.02
2022-09-06T10:53:11.716Z,11.05
2022-09-06T10:55:41.448Z,10.52
2022-09-06T10:58:19.719Z,11.77
2022-09-06T11:00:49.461Z,10.45
2022-09-06T11:06:26.833Z,10.48
2022-09-06T11:09:41.687Z,10.85
2022-09-06T11:12:19.715Z,9.70
2022-09-06T11:14:47.014Z,12.00
2022-09-06T11:17:32.580Z,10.55
2022-09-06T11:20:15.476Z,10.77
2022-09-06T11:23:02.759Z,11.80
2022-09-06T11:25:55.546Z,12.05
2022-09-06T11:28:39.210Z,10.50
2022-09-06T11:31:09.269Z,9.13
2022-09-06T11:33:39.791Z,10.93
2022-09-06T11:36:34.455Z,10.80
2022-09-06T11:39:03.944Z,9.00
2022-09-06T11:41:36.955Z,9.27
2022-09-06T11:44:04.798Z,9.65
2022-09-06T11:46:34.731Z,9.35
2022-09-06T11:49:33.194Z,13.90
2022-09-06T11:52:00.507Z,8.90
2022-09-06T11:54:45.000Z,9.75
2022-09-06T11:57:16.108Z,10.68
2022-09-06T11:59:54.486Z,9.25
2022-09-06T12:02:41.206Z,9.52
2022-09-06T12:05:09.835Z,8.98
2022-09-06T12:07:38.981Z,9.65
2022-09-06T12:10:40.758Z,11.85
2022-09-06T12:13:52.555Z,8.35
2022-09-06T12:16:19.509Z,9.48
2022-09-06T12:18:49.592Z,9.38
2022-09-06T12:21:40.191Z,9.18
2022-09-06T12:24:09.883Z,11.48
2022-09-06T12:27:15.727Z,8.43
2022-09-06T12:30:01.866Z,8.05
2022-09-06T12:32:37.210Z,8.65
2022-09-06T12:37:58.452Z,8.18
2022-09-06T12:40:28.523Z,9.35
2022-09-06T12:42:55.890Z,12.15
2022-09-06T12:45:27.366Z,8.23
2022-09-06T12:48:09.533Z,8.48
2022-09-06T12:50:37.495Z,9.05
2022-09-06T12:53:23.155Z,9.40
2022-09-06T12:56:09.389Z,8.15
2022-09-06T12:58:36.956Z,10.55
2022-09-06T13:01:35.962Z,8.48
2022-09-06T13:04:11.610Z,7.80
2022-09-06T13:06:42.540Z,8.50
2022-09-06T13:09:13.900Z,8.07
2022-09-06T13:14:19.933Z,9.90
2022-09-06T13:16:49.447Z,8.35
2022-09-06T13:19:34.117Z,13.85
2022-09-06T13:22:03.841Z,6.85
2022-09-06T13:24:45.849Z,7.93
2022-09-06T13:27:30.709Z,7.78
2022-09-06T13:30:02.361Z,7.55
2022-09-06T13:32:30.102Z,8.18
2022-09-06T13:34:59.624Z,9.75
2022-09-06T13:37:29.265Z,8.82
2022-09-06T13:39:57.740Z,8.40
2022-09-06T13:42:24.689Z,8.65
2022-09-06T13:44:51.569Z,9.60
2022-09-06T13:47:18.337Z,8.15
2022-09-06T13:49:45.219Z,8.02
2022-09-06T13:52:12.067Z,8.93
2022-09-06T13:54:40.031Z,7.82
2022-09-06T13:57:06.871Z,7.75
2022-09-06T13:59:33.623Z,7.63
2022-09-06T14:02:12.978Z,9.63
2022-09-06T14:04:40.222Z,8.40
2022-09-06T14:07:07.356Z,9.50
2022-09-06T14:09:34.718Z,8.32
2022-09-06T14:12:29.905Z,8.55
2022-09-06T14:14:56.860Z,9.23
2022-09-06T14:17:23.826Z,8.93
2022-09-06T14:19:51.068Z,10.02
2022-09-06T14:22:18.177Z,9.05
2022-09-06T14:24:45.133Z,9.07
2022-09-06T14:27:12.327Z,9.23
2022-09-06T14:29:40.090Z,8.52
2022-09-06T14:32:07.330Z,8.50
2022-09-06T14:34:34.228Z,9.32
2022-09-06T14:37:01.169Z,9.45
2022-09-06T14:39:28.126Z,11.48
2022-09-06T14:41:55.234Z,10.13
2022-09-06T14:44:22.156Z,9.30
2022-09-06T14:46:53.374Z,8.70
2022-09-06T14:49:25.313Z,9.18
2022-09-06T14:51:53.816Z,12.10
2022-09-06T14:54:20.972Z,9.30
2022-09-06T14:56:48.018Z,9.02
2022-09-06T14:59:14.942Z,11.02
2022-09-06T15:01:41.956Z,9.15
2022-09-06T15:04:11.778Z,9.57
2022-09-06T15:06:40.787Z,10.07
2022-09-06T15:09:08.259Z,12.57
2022-09-06T15:11:46.983Z,9.38
2022-09-06T15:14:16.849Z,9.77
2022-09-06T15:16:44.835Z,9.02
2022-09-06T15:19:12.111Z,11.15
2022-09-06T15:21:39.168Z,9.15
2022-09-06T15:24:11.545Z,11.55
2022-09-06T15:26:39.731Z,10.85
2022-09-06T15:29:06.682Z,9.95
2022-09-06T15:31:34.595Z,8.98
2022-09-06T15:34:02.952Z,8.77
2022-09-06T15:36:30.270Z,9.05
2022-09-06T15:39:01.001Z,8.77
2022-09-06T15:41:30.918Z,10.43
2022-09-06T15:44:18.836Z,9.00
2022-09-06T15:47:00.236Z,11.90
2022-09-06T15:49:31.712Z,13.73
2022-09-06T15:54:47.188Z,9.95
2022-09-06T15:57:16.313Z,10.50
2022-09-06T15:59:43.624Z,11.13
2022-09-06T16:02:11.280Z,9.40
2022-09-06T16:04:38.379Z,12.32
2022-09-06T16:07:05.825Z,10.30
2022-09-06T16:09:32.720Z,9.02
2022-09-06T16:11:59.673Z,9.43
2022-09-06T16:14:28.140Z,10.43
2022-09-06T16:16:56.261Z,8.38
2022-09-06T16:19:25.875Z,8.10
2022-09-06T16:21:52.734Z,12.02
2022-09-06T16:24:19.691Z,8.35
2022-09-06T16:26:46.936Z,10.10
2022-09-06T16:29:16.470Z,9.88
2022-09-06T16:31:43.936Z,11.45
2022-09-06T16:34:12.034Z,11.88
2022-09-06T16:36:39.144Z,9.30
2022-09-06T16:39:06.940Z,9.02
2022-09-06T16:41:42.586Z,8.82
2022-09-06T16:44:16.316Z,11.95
2022-09-06T16:46:45.437Z,12.70
2022-09-06T16:49:12.392Z,10.73
2022-09-06T16:51:39.375Z,9.63
2022-09-06T16:54:06.309Z,13.35
2022-09-06T16:56:35.861Z,12.70
2022-09-06T16:59:06.049Z,12.68
2022-09-06T17:01:33.584Z,11.93
2022-09-06T17:04:04.243Z,13.45
2022-09-06T17:06:33.144Z,11.60
2022-09-06T17:09:00.335Z,12.15
2022-09-06T17:11:28.596Z,11.38
2022-09-06T17:13:56.968Z,9.70
2022-09-06T17:16:43.452Z,11.00
2022-09-06T17:19:10.648Z,10.68
2022-09-06T17:21:39.218Z,14.00
2022-09-06T17:24:07.375Z,11.35
2022-09-06T17:26:37.277Z,11.57
2022-09-06T17:29:04.634Z,10.45
2022-09-06T17:31:31.900Z,13.70
2022-09-06T17:34:01.837Z,11.05
2022-09-06T17:36:31.003Z,10.85
2022-09-06T17:39:08.208Z,10.05
2022-09-06T17:41:45.614Z,10.68
2022-09-06T17:44:14.508Z,15.82
2022-09-06T17:46:57.104Z,8.27
2022-09-06T17:49:24.567Z,9.75
2022-09-06T17:51:52.170Z,7.38
2022-09-06T17:54:19.140Z,10.50
2022-09-06T17:56:46.049Z,8.85
2022-09-06T17:59:35.157Z,10.25
2022-09-06T18:02:02.870Z,8.40
2022-09-06T18:04:29.837Z,8.20
2022-09-06T18:06:56.731Z,7.85
2022-09-06T18:09:23.635Z,7.13
2022-09-06T18:11:50.526Z,7.70
2022-09-06T18:14:21.011Z,8.65
2022-09-06T18:16:52.154Z,10.07
2022-09-06T18:19:19.166Z,10.48
2022-09-06T18:21:47.084Z,7.50
2022-09-06T18:24:14.095Z,7.38
2022-09-06T18:26:41.697Z,10.27
2022-09-06T18:29:12.065Z,11.52
2022-09-06T18:31:39.662Z,9.45
2022-09-06T18:34:07.927Z,10.23
2022-09-06T18:36:35.257Z,11.35
2022-09-06T18:46:46.281Z,25.52
2022-09-06T18:50:20.687Z,16.10
2022-09-06T18:52:47.545Z,16.23
2022-09-06T18:55:14.437Z,26.17
2022-09-06T18:57:41.294Z,17.88
2022-09-06T19:00:08.929Z,20.48
2022-09-06T19:02:35.852Z,18.88
2022-09-06T19:05:02.873Z,16.42
2022-09-06T19:07:29.911Z,14.93
2022-09-06T19:09:57.760Z,11.95
2022-09-06T19:12:24.774Z,20.75
2022-09-06T19:14:51.719Z,20.83
2022-09-06T19:17:18.559Z,21.17
2022-09-06T19:19:45.409Z,16.55
2022-09-06T19:22:12.254Z,16.40
2022-09-06T19:24:40.016Z,17.40
2022-09-06T19:27:07.939Z,14.65
2022-09-06T19:29:34.849Z,14.57
2022-09-06T19:32:01.883Z,15.93
2022-09-06T19:34:29.176Z,14.68
2022-09-06T19:37:13.421Z,14.68
2022-09-06T19:43:30.865Z,16.65
2022-09-06T19:46:00.825Z,18.83
2022-09-06T19:48:55.970Z,16.35
2022-09-06T19:51:24.132Z,17.13
2022-09-06T19:57:57.839Z,14.68
2022-09-06T20:00:24.831Z,19.95
2022-09-06T20:02:51.659Z,19.30
2022-09-06T20:05:18.704Z,16.35
2022-09-06T20:07:45.539Z,18.65
2022-09-06T20:14:00.966Z,18.50
2022-09-06T20:20:42.645Z,19.95
2022-09-06T20:31:26.612Z,14.40
2022-09-06T20:33:56.358Z,14.23
2022-09-06T20:40:11.419Z,16.25
2022-09-06T20:46:28.256Z,21.58
2022-09-06T20:49:10.368Z,19.02
2022-09-06T20:55:26.916Z,20.63
2022-09-06T20:58:54.033Z,15.50
2022-09-06T21:01:24.005Z,14.05
2022-09-06T21:04:26.541Z,20.05
2022-09-06T21:06:56.392Z,19.95
2022-09-06T21:09:23.765Z,16.33
2022-09-06T21:11:52.610Z,17.10
2022-09-06T21:14:19.759Z,22.27
2022-09-06T21:16:46.741Z,20.58
2022-09-06T21:23:44.819Z,21.85
2022-09-06T21:30:08.677Z,25.13
2022-09-06T21:36:58.928Z,31.05
2022-09-06T21:43:33.767Z,27.40
2022-09-06T21:53:37.975Z,28.73
2022-09-06T22:07:37.331Z,23.17
2022-09-06T22:17:38.956Z,17.45
2022-09-06T22:23:59.532Z,15.48
2022-09-06T22:38:00.013Z,15.05
2022-09-06T22:40:26.855Z,12.07
2022-09-06T22:47:02.696Z,12.10
2022-09-06T22:49:29.545Z,14.52
2022-09-06T23:00:10.936Z,23.08
2022-09-06T23:07:02.695Z,14.90
2022-09-06T23:09:44.259Z,15.68
2022-09-06T23:12:11.074Z,18.17
2022-09-06T23:14:38.012Z,14.45
2022-09-06T23:20:55.044Z,13.90
